createdAt,value
2023-03-29T00:02:30.094Z,96.30
2023-03-29T00:04:57.583Z,96.40
2023-03-29T00:07:26.084Z,96.50
2023-03-29T00:09:53.003Z,96.60
2023-03-29T00:12:19.770Z,96.60
2023-03-29T00:14:46.416Z,96.60
2023-03-29T00:17:13.128Z,96.50
2023-03-29T00:19:39.863Z,96.60
2023-03-29T00:22:06.519Z,96.50
2023-03-29T00:24:33.242Z,96.50
2023-03-29T00:26:59.886Z,96.60
2023-03-29T00:29:26.556Z,96.60
2023-03-29T00:31:54.269Z,96.70
2023-03-29T00:34:20.976Z,96.60
2023-03-29T00:36:50.702Z,96.60
2023-03-29T00:39:18.088Z,96.50
2023-03-29T00:41:48.783Z,96.50
2023-03-29T00:44:34.099Z,96.50
2023-03-29T00:47:00.686Z,96.40
2023-03-29T00:49:27.402Z,96.40
2023-03-29T00:51:53.980Z,96.40
2023-03-29T00:54:20.649Z,96.20
2023-03-29T00:56:50.121Z,96.20
2023-03-29T00:59:22.404Z,96.20
2023-03-29T01:01:54.316Z,96.10
2023-03-29T01:04:29.339Z,96.10
2023-03-29T01:07:18.622Z,96.10
2023-03-29T01:09:47.921Z,96.20
2023-03-29T01:12:20.863Z,96.10
2023-03-29T01:14:54.300Z,96.10
2023-03-29T01:17:25.526Z,96.10
2023-03-29T01:19:58.079Z,96.20
2023-03-29T01:22:38.481Z,96.20
2023-03-29T01:25:05.286Z,96.20
2023-03-29T01:27:55.390Z,96.30
2023-03-29T01:30:40.627Z,96.20
2023-03-29T01:33:12.043Z,96.30
2023-03-29T01:35:44.644Z,96.30
2023-03-29T01:38:23.531Z,96.30
2023-03-29T01:40:50.251Z,96.40
2023-03-29T01:43:22.745Z,96.40
2023-03-29T01:46:10.241Z,96.40
2023-03-29T01:48:48.193Z,96.80
2023-03-29T01:51:33.000Z,96.80
2023-03-29T01:54:08.886Z,96.70
2023-03-29T01:56:39.763Z,96.80
2023-03-29T01:59:08.311Z,96.70
2023-03-29T02:01:38.468Z,96.70
2023-03-29T02:04:07.192Z,96.60
2023-03-29T02:06:34.099Z,96.70
2023-03-29T02:09:00.966Z,96.60
2023-03-29T02:11:29.222Z,96.60
2023-03-29T02:13:59.109Z,96.90
2023-03-29T02:16:25.737Z,96.90
2023-03-29T02:18:54.160Z,96.70
2023-03-29T02:21:30.849Z,96.70
2023-03-29T02:23:59.597Z,96.50
2023-03-29T02:26:26.250Z,96.50
2023-03-29T02:28:53.342Z,96.60
2023-03-29T02:31:30.253Z,96.50
2023-03-29T02:33:59.107Z,96.50
2023-03-29T02:36:29.361Z,96.50
2023-03-29T02:38:56.817Z,96.50
2023-03-29T02:41:24.385Z,96.40
2023-03-29T02:43:51.252Z,96.40
2023-03-29T02:46:18.376Z,96.20
2023-03-29T02:48:46.710Z,96.20
2023-03-29T02:51:19.911Z,96.10
2023-03-29T02:54:19.500Z,96.00
2023-03-29T02:56:48.085Z,96.00
2023-03-29T02:59:15.743Z,95.80
2023-03-29T03:01:45.533Z,95.80
2023-03-29T03:04:12.330Z,95.80
2023-03-29T03:06:39.734Z,95.70
2023-03-29T03:09:06.871Z,95.60
2023-03-29T03:11:33.806Z,95.50
2023-03-29T03:14:00.895Z,95.60
2023-03-29T03:16:28.081Z,95.50
2023-03-29T03:18:55.673Z,95.50
2023-03-29T03:21:22.650Z,95.30
2023-03-29T03:23:49.365Z,95.40
2023-03-29T03:26:18.702Z,95.40
2023-03-29T03:28:48.319Z,95.30
2023-03-29T03:31:14.983Z,95.40
2023-03-29T03:33:41.754Z,95.30
2023-03-29T03:36:10.132Z,95.30
2023-03-29T03:38:37.873Z,95.10
2023-03-29T03:41:05.583Z,95.30
2023-03-29T03:43:32.491Z,95.10
2023-03-29T03:45:59.247Z,95.10
2023-03-29T03:48:25.872Z,95.10
2023-03-29T03:50:53.590Z,95.10
2023-03-29T03:53:21.237Z,95.20
2023-03-29T03:55:51.641Z,95.30
2023-03-29T03:58:18.626Z,95.40
2023-03-29T04:00:47.876Z,95.20
2023-03-29T04:03:15.519Z,95.20
2023-03-29T04:05:44.518Z,95.50
2023-03-29T04:08:12.503Z,95.40
2023-03-29T04:10:39.553Z,95.40
2023-03-29T04:13:06.564Z,95.30
2023-03-29T04:15:34.147Z,95.50
2023-03-29T04:18:00.974Z,95.60
2023-03-29T04:20:28.118Z,95.50
2023-03-29T04:22:54.698Z,95.30
2023-03-29T04:25:22.288Z,95.30
2023-03-29T04:27:49.898Z,95.40
2023-03-29T04:30:16.974Z,95.50
2023-03-29T04:32:43.649Z,95.40
2023-03-29T04:35:10.531Z,95.30
2023-03-29T04:37:40.280Z,95.40
2023-03-29T04:40:09.770Z,95.40
2023-03-29T04:42:37.623Z,95.40
2023-03-29T04:45:06.920Z,95.40
2023-03-29T04:47:36.317Z,95.60
2023-03-29T04:50:03.362Z,95.50
2023-03-29T04:52:33.125Z,95.50
2023-03-29T04:55:00.344Z,95.60
2023-03-29T04:57:27.441Z,95.50
2023-03-29T04:59:54.396Z,95.70
2023-03-29T05:02:21.787Z,95.50
2023-03-29T05:04:48.458Z,95.40
2023-03-29T05:07:15.348Z,95.50
2023-03-29T05:09:42.567Z,95.40
2023-03-29T05:12:09.196Z,95.30
2023-03-29T05:14:36.307Z,95.40
2023-03-29T05:17:06.375Z,95.40
2023-03-29T05:19:33.644Z,95.30
2023-03-29T05:22:00.746Z,95.10
2023-03-29T05:24:27.442Z,95.30
2023-03-29T05:26:54.376Z,95.40
2023-03-29T05:29:21.625Z,95.30
2023-03-29T05:31:48.437Z,95.50
2023-03-29T05:34:15.052Z,95.50
2023-03-29T05:36:42.890Z,95.20
2023-03-29T05:39:10.866Z,95.20
2023-03-29T05:41:37.901Z,95.20
2023-03-29T05:44:04.524Z,95.20
2023-03-29T05:46:31.511Z,95.10
2023-03-29T05:48:58.134Z,95.10
2023-03-29T05:51:24.754Z,95.00
2023-03-29T05:53:52.036Z,94.90
2023-03-29T05:56:19.095Z,95.10
2023-03-29T05:58:49.447Z,94.80
2023-03-29T06:01:17.912Z,94.90
2023-03-29T06:03:46.149Z,95.00
2023-03-29T06:06:16.211Z,94.90
2023-03-29T06:08:43.245Z,95.00
2023-03-29T06:11:11.104Z,94.80
2023-03-29T06:13:38.974Z,94.60
2023-03-29T06:16:06.346Z,94.60
2023-03-29T06:18:33.182Z,94.40
2023-03-29T06:21:01.997Z,94.60
2023-03-29T06:23:29.172Z,94.60
2023-03-29T06:25:56.250Z,94.20
2023-03-29T06:28:23.939Z,94.20
2023-03-29T06:30:50.808Z,94.30
2023-03-29T06:33:18.566Z,95.40
2023-03-29T06:35:46.563Z,94.50
2023-03-29T06:38:13.657Z,93.80
2023-03-29T06:40:40.544Z,93.90
2023-03-29T06:43:07.279Z,93.60
2023-03-29T06:45:35.284Z,93.00
2023-03-29T06:48:03.206Z,92.90
2023-03-29T06:50:30.384Z,93.00
2023-03-29T06:52:57.299Z,92.60
2023-03-29T06:55:24.341Z,92.20
2023-03-29T06:57:51.004Z,92.90
2023-03-29T07:00:19.147Z,92.40
2023-03-29T07:02:46.495Z,92.70
2023-03-29T07:05:13.855Z,92.60
2023-03-29T07:07:56.609Z,92.80
2023-03-29T07:10:25.926Z,92.30
2023-03-29T07:12:52.844Z,92.40
2023-03-29T07:15:21.362Z,92.50
2023-03-29T07:17:48.636Z,92.60
2023-03-29T07:20:15.800Z,92.90
2023-03-29T07:22:43.828Z,92.50
2023-03-29T07:25:12.237Z,92.50
2023-03-29T07:27:40.746Z,91.70
2023-03-29T07:30:11.204Z,91.60
2023-03-29T07:32:39.056Z,91.60
2023-03-29T07:35:06.734Z,91.50
2023-03-29T07:37:34.248Z,90.80
2023-03-29T07:40:03.386Z,91.10
2023-03-29T07:42:30.244Z,91.40
2023-03-29T07:44:58.120Z,90.90
2023-03-29T07:47:24.942Z,91.20
2023-03-29T07:49:51.529Z,91.50
2023-03-29T07:52:18.611Z,91.00
2023-03-29T07:54:45.238Z,91.00
2023-03-29T07:57:12.331Z,91.00
2023-03-29T07:59:39.156Z,90.70
2023-03-29T08:02:06.600Z,90.50
2023-03-29T08:04:33.362Z,90.40
2023-03-29T08:07:00.030Z,90.60
2023-03-29T08:09:27.237Z,90.20
2023-03-29T08:11:53.870Z,90.60
2023-03-29T08:14:21.854Z,90.10
2023-03-29T08:16:48.459Z,90.00
2023-03-29T08:19:16.466Z,89.30
2023-03-29T08:21:43.161Z,89.20
2023-03-29T08:24:09.765Z,89.00
2023-03-29T08:26:36.372Z,88.90
2023-03-29T08:29:03.031Z,89.40
2023-03-29T08:31:29.704Z,89.80
2023-03-29T08:33:56.377Z,90.40
2023-03-29T08:36:22.936Z,90.00
2023-03-29T08:38:50.558Z,90.00
2023-03-29T08:41:26.255Z,89.50
2023-03-29T08:44:04.751Z,88.50
2023-03-29T08:46:44.243Z,87.20
2023-03-29T08:49:12.311Z,87.10
2023-03-29T08:51:49.843Z,85.10
2023-03-29T08:54:21.816Z,84.30
2023-03-29T08:56:49.948Z,84.40
2023-03-29T08:59:27.410Z,83.80
2023-03-29T09:01:55.471Z,82.30
2023-03-29T09:04:27.413Z,81.30
2023-03-29T09:06:57.370Z,80.10
2023-03-29T09:09:28.559Z,79.90
2023-03-29T09:11:56.495Z,81.10
2023-03-29T09:14:23.077Z,81.30
2023-03-29T09:16:49.678Z,82.80
2023-03-29T09:19:16.239Z,83.70
2023-03-29T09:21:43.305Z,85.50
2023-03-29T09:24:10.112Z,85.10
2023-03-29T09:26:47.791Z,82.60
2023-03-29T09:29:14.452Z,80.20
2023-03-29T09:31:44.779Z,80.80
2023-03-29T09:34:21.091Z,79.40
2023-03-29T09:36:55.176Z,79.20
2023-03-29T09:39:22.630Z,78.90
2023-03-29T09:41:51.746Z,78.70
2023-03-29T09:44:31.754Z,75.30
2023-03-29T09:47:02.415Z,76.10
2023-03-29T09:49:31.449Z,76.30
2023-03-29T09:52:01.711Z,75.70
2023-03-29T09:54:28.698Z,74.60
2023-03-29T09:56:55.470Z,70.20
2023-03-29T09:59:22.063Z,69.80
2023-03-29T10:01:48.795Z,66.80
2023-03-29T10:04:16.786Z,68.80
2023-03-29T10:06:47.463Z,70.00
2023-03-29T10:09:15.136Z,69.50
2023-03-29T10:11:43.159Z,68.60
2023-03-29T10:14:14.318Z,65.80
2023-03-29T10:16:42.288Z,64.60
2023-03-29T10:19:17.157Z,65.00
2023-03-29T10:21:43.789Z,65.60
2023-03-29T10:24:10.403Z,63.90
2023-03-29T10:26:39.028Z,62.40
2023-03-29T10:29:07.156Z,57.70
2023-03-29T10:31:36.608Z,56.40
2023-03-29T10:34:05.090Z,57.00
2023-03-29T10:36:31.876Z,58.40
2023-03-29T10:38:59.932Z,58.60
2023-03-29T10:41:27.241Z,58.80
2023-03-29T10:43:54.223Z,56.70
2023-03-29T10:46:28.761Z,54.80
2023-03-29T10:49:05.242Z,55.90
2023-03-29T10:51:32.490Z,59.40
2023-03-29T10:53:59.514Z,61.20
2023-03-29T10:56:37.053Z,64.50
2023-03-29T10:59:10.066Z,65.70
2023-03-29T11:01:48.168Z,68.90
2023-03-29T11:04:20.752Z,69.80
2023-03-29T11:07:07.871Z,70.90
2023-03-29T11:09:34.445Z,72.30
2023-03-29T11:12:15.503Z,70.80
2023-03-29T11:15:05.555Z,70.50
2023-03-29T11:17:32.532Z,70.10
2023-03-29T11:19:59.139Z,69.10
2023-03-29T11:22:34.003Z,69.50
2023-03-29T11:25:33.385Z,69.90
2023-03-29T11:28:04.590Z,70.50
2023-03-29T11:30:45.957Z,70.60
2023-03-29T11:33:15.357Z,71.80
2023-03-29T11:36:00.943Z,72.70
2023-03-29T11:38:46.533Z,68.60
2023-03-29T11:41:23.205Z,64.50
2023-03-29T11:44:10.064Z,60.00
2023-03-29T11:46:40.034Z,57.90
2023-03-29T11:49:18.343Z,60.40
2023-03-29T11:51:48.805Z,63.60
2023-03-29T11:54:17.956Z,64.50
2023-03-29T11:56:50.157Z,66.20
2023-03-29T11:59:36.583Z,65.90
2023-03-29T12:02:18.364Z,65.20
2023-03-29T12:04:48.382Z,65.10
2023-03-29T12:07:14.971Z,66.50
2023-03-29T12:09:47.807Z,67.80
2023-03-29T12:12:21.240Z,67.00
2023-03-29T12:15:07.217Z,67.30
2023-03-29T12:17:43.756Z,67.10
2023-03-29T12:20:10.489Z,69.00
2023-03-29T12:22:37.329Z,67.60
2023-03-29T12:25:04.671Z,68.40
2023-03-29T12:27:37.374Z,69.80
2023-03-29T12:30:23.426Z,68.80
2023-03-29T12:33:25.732Z,69.50
2023-03-29T12:36:02.550Z,70.40
2023-03-29T12:38:31.071Z,70.10
2023-03-29T12:40:59.921Z,70.70
2023-03-29T12:43:28.070Z,71.20
2023-03-29T12:45:57.022Z,71.80
2023-03-29T12:48:25.724Z,73.80
2023-03-29T12:50:53.556Z,73.10
2023-03-29T12:53:25.033Z,73.30
2023-03-29T12:56:09.619Z,73.90
2023-03-29T12:58:39.429Z,74.10
2023-03-29T13:01:10.554Z,73.30
2023-03-29T13:03:39.973Z,73.90
2023-03-29T13:06:08.536Z,74.20
2023-03-29T13:08:36.364Z,73.10
2023-03-29T13:11:04.108Z,74.00
2023-03-29T13:13:37.870Z,73.80
2023-03-29T13:16:11.893Z,74.30
2023-03-29T13:18:48.383Z,73.90
2023-03-29T13:21:41.405Z,73.60
2023-03-29T13:24:14.055Z,74.00
2023-03-29T13:26:43.797Z,72.90
2023-03-29T13:29:28.948Z,72.50
2023-03-29T13:31:58.529Z,73.80
2023-03-29T13:34:43.911Z,73.60
2023-03-29T13:37:29.246Z,72.50
2023-03-29T13:39:56.190Z,72.90
2023-03-29T13:42:35.202Z,72.30
2023-03-29T13:45:24.825Z,72.90
2023-03-29T13:48:05.133Z,73.70
2023-03-29T13:50:37.183Z,73.20
2023-03-29T13:53:09.999Z,72.90
2023-03-29T13:55:39.825Z,72.80
2023-03-29T13:58:10.650Z,72.40
2023-03-29T14:00:44.483Z,73.30
2023-03-29T14:03:13.503Z,73.50
2023-03-29T14:05:42.104Z,73.80
2023-03-29T14:08:08.854Z,72.70
2023-03-29T14:10:39.047Z,72.90
2023-03-29T14:13:05.877Z,73.10
2023-03-29T14:15:52.027Z,74.00
2023-03-29T14:18:21.132Z,74.00
2023-03-29T14:20:49.117Z,74.60
2023-03-29T14:23:19.549Z,74.80
2023-03-29T14:25:46.639Z,75.40
2023-03-29T14:28:19.050Z,76.00
2023-03-29T14:30:47.151Z,76.00
2023-03-29T14:33:14.180Z,76.30
2023-03-29T14:35:41.034Z,76.80
2023-03-29T14:38:11.193Z,78.80
2023-03-29T14:40:37.788Z,77.30
2023-03-29T14:43:06.713Z,77.20
2023-03-29T14:45:33.496Z,77.10
2023-03-29T14:48:00.467Z,76.80
2023-03-29T14:50:28.871Z,77.10
2023-03-29T14:52:56.797Z,77.20
2023-03-29T14:55:24.008Z,77.00
2023-03-29T14:57:53.179Z,77.60
2023-03-29T15:00:26.763Z,77.80
2023-03-29T15:02:54.856Z,78.50
2023-03-29T15:05:28.644Z,78.60
2023-03-29T15:07:56.249Z,79.20
2023-03-29T15:10:23.258Z,79.40
2023-03-29T15:12:50.619Z,80.60
2023-03-29T15:15:17.448Z,80.20
2023-03-29T15:17:51.758Z,80.40
2023-03-29T15:20:23.241Z,80.30
2023-03-29T15:22:54.101Z,81.70
2023-03-29T15:25:21.116Z,82.50
2023-03-29T15:27:50.075Z,83.10
2023-03-29T15:30:17.665Z,83.40
2023-03-29T15:32:44.700Z,84.60
2023-03-29T15:35:23.255Z,84.80
2023-03-29T15:37:51.375Z,84.60
2023-03-29T15:40:23.255Z,84.50
2023-03-29T15:42:50.266Z,83.90
2023-03-29T15:45:17.764Z,84.00
2023-03-29T15:47:44.426Z,83.80
2023-03-29T15:50:11.438Z,83.70
2023-03-29T15:52:38.544Z,83.90
2023-03-29T15:55:05.403Z,84.20
2023-03-29T15:57:32.253Z,85.10
2023-03-29T15:59:59.053Z,84.70
2023-03-29T16:02:25.945Z,85.30
2023-03-29T16:04:53.391Z,84.90
2023-03-29T16:07:20.951Z,85.40
2023-03-29T16:09:47.665Z,86.10
2023-03-29T16:12:16.279Z,85.30
2023-03-29T16:14:43.406Z,85.20
2023-03-29T16:17:10.054Z,85.30
2023-03-29T16:19:36.730Z,85.90
2023-03-29T16:22:07.022Z,85.30
2023-03-29T16:24:34.807Z,85.10
2023-03-29T16:27:01.839Z,85.30
2023-03-29T16:29:28.482Z,84.90
2023-03-29T16:31:55.190Z,84.90
2023-03-29T16:34:22.694Z,85.30
2023-03-29T16:36:49.783Z,85.40
2023-03-29T16:39:17.301Z,85.40
2023-03-29T16:41:45.162Z,85.60
2023-03-29T16:44:21.773Z,86.00
2023-03-29T16:46:50.440Z,86.20
2023-03-29T16:49:18.213Z,86.20
2023-03-29T16:51:48.279Z,86.70
2023-03-29T16:54:15.226Z,86.70
2023-03-29T16:56:41.861Z,86.80
2023-03-29T16:59:09.289Z,86.90
2023-03-29T17:01:36.573Z,87.50
2023-03-29T17:04:04.034Z,87.50
2023-03-29T17:06:32.488Z,87.60
2023-03-29T17:08:59.440Z,87.70
2023-03-29T17:11:26.869Z,87.60
2023-03-29T17:13:53.990Z,87.70
2023-03-29T17:16:21.030Z,87.90
2023-03-29T17:18:47.872Z,87.90
2023-03-29T17:21:14.584Z,88.20
2023-03-29T17:23:41.358Z,90.30
2023-03-29T17:26:08.471Z,90.10
2023-03-29T17:28:35.812Z,90.00
2023-03-29T17:31:08.494Z,89.00
2023-03-29T17:33:36.030Z,89.50
2023-03-29T17:36:04.040Z,90.60
2023-03-29T17:38:30.955Z,90.00
2023-03-29T17:40:57.582Z,89.70
2023-03-29T17:43:24.258Z,91.30
2023-03-29T17:45:51.660Z,90.00
2023-03-29T17:48:19.318Z,90.00
2023-03-29T17:50:45.929Z,90.40
2023-03-29T17:53:13.328Z,90.60
2023-03-29T17:55:40.969Z,90.50
2023-03-29T17:58:07.843Z,90.70
2023-03-29T18:00:34.561Z,91.10
2023-03-29T18:03:01.318Z,90.80
2023-03-29T18:05:28.102Z,91.40
2023-03-29T18:07:55.224Z,90.80
2023-03-29T18:10:22.018Z,90.80
2023-03-29T18:12:48.693Z,91.10
2023-03-29T18:15:15.350Z,91.40
2023-03-29T18:17:42.062Z,91.10
2023-03-29T18:20:11.843Z,91.50
2023-03-29T18:22:39.418Z,91.80
2023-03-29T18:25:07.341Z,91.50
2023-03-29T18:27:33.974Z,91.50
2023-03-29T18:30:00.628Z,91.70
2023-03-29T18:32:27.343Z,91.70
2023-03-29T18:34:53.959Z,91.60
2023-03-29T18:37:20.886Z,92.10
2023-03-29T18:39:47.994Z,91.70
2023-03-29T18:42:14.810Z,91.90
2023-03-29T18:44:42.210Z,92.30
2023-03-29T18:47:09.067Z,92.20
2023-03-29T18:49:36.621Z,92.40
2023-03-29T18:52:04.663Z,92.30
2023-03-29T18:54:31.341Z,92.40
2023-03-29T18:56:59.258Z,92.70
2023-03-29T18:59:26.302Z,93.00
2023-03-29T19:01:53.082Z,92.40
2023-03-29T19:04:20.028Z,92.70
2023-03-29T19:06:47.430Z,92.60
2023-03-29T19:09:14.267Z,92.60
2023-03-29T19:11:40.922Z,92.60
2023-03-29T19:14:09.185Z,92.80
2023-03-29T19:16:36.102Z,93.00
2023-03-29T19:19:04.889Z,92.90
2023-03-29T19:21:32.265Z,92.80
2023-03-29T19:24:00.788Z,92.90
2023-03-29T19:26:28.672Z,93.00
2023-03-29T19:28:55.296Z,93.20
2023-03-29T19:31:22.499Z,93.10
2023-03-29T19:33:49.137Z,93.10
2023-03-29T19:36:15.742Z,93.10
2023-03-29T19:38:42.420Z,93.20
2023-03-29T19:41:09.002Z,93.30
2023-03-29T19:43:35.657Z,93.30
2023-03-29T19:46:07.784Z,93.60
2023-03-29T19:48:34.456Z,93.60
2023-03-29T19:51:02.710Z,93.60
2023-03-29T19:53:32.576Z,93.80
2023-03-29T19:55:59.605Z,93.80
2023-03-29T19:58:26.251Z,93.80
2023-03-29T20:00:54.505Z,94.10
2023-03-29T20:03:21.893Z,94.00
2023-03-29T20:05:48.733Z,94.20
2023-03-29T20:08:15.393Z,94.10
2023-03-29T20:10:42.455Z,94.20
2023-03-29T20:13:09.070Z,94.50
2023-03-29T20:15:35.896Z,94.40
2023-03-29T20:18:03.332Z,94.40
2023-03-29T20:20:30.054Z,94.60
2023-03-29T20:23:04.678Z,94.30
2023-03-29T20:25:34.635Z,94.80
2023-03-29T20:28:01.302Z,94.60
2023-03-29T20:30:28.096Z,94.50
2023-03-29T20:32:55.928Z,94.70
2023-03-29T20:35:22.692Z,94.70
2023-03-29T20:37:49.287Z,94.80
2023-03-29T20:40:15.998Z,94.60
2023-03-29T20:42:42.828Z,94.80
2023-03-29T20:45:18.161Z,94.70
2023-03-29T20:47:50.249Z,94.90
2023-03-29T20:50:18.639Z,95.00
2023-03-29T20:52:45.299Z,95.00
2023-03-29T20:55:12.891Z,95.00
2023-03-29T20:57:42.075Z,95.00
2023-03-29T21:00:11.850Z,95.40
2023-03-29T21:02:39.209Z,95.70
2023-03-29T21:05:06.536Z,95.30
2023-03-29T21:07:33.232Z,95.40
2023-03-29T21:10:01.085Z,95.30
2023-03-29T21:12:27.716Z,95.40
2023-03-29T21:14:55.096Z,95.50
2023-03-29T21:17:21.985Z,95.50
2023-03-29T21:19:48.619Z,95.50
2023-03-29T21:22:15.311Z,95.50
2023-03-29T21:24:41.919Z,95.60
2023-03-29T21:27:08.549Z,95.90
2023-03-29T21:29:35.349Z,95.70
2023-03-29T21:32:02.052Z,95.70
2023-03-29T21:34:28.700Z,95.80
2023-03-29T21:36:55.408Z,96.00
2023-03-29T21:39:24.802Z,96.00
2023-03-29T21:41:51.418Z,96.10
2023-03-29T21:44:18.075Z,96.30
2023-03-29T21:46:44.832Z,96.50
2023-03-29T21:49:11.618Z,96.60
2023-03-29T21:51:40.186Z,96.70
2023-03-29T21:54:06.811Z,96.70
2023-03-29T21:56:33.380Z,96.60
2023-03-29T21:59:00.152Z,96.70
2023-03-29T22:01:27.104Z,96.80
2023-03-29T22:03:53.772Z,96.80
2023-03-29T22:06:20.715Z,96.70
2023-03-29T22:08:49.465Z,96.70
2023-03-29T22:11:16.371Z,96.70
2023-03-29T22:13:43.687Z,96.70
2023-03-29T22:16:16.426Z,96.80
2023-03-29T22:18:43.195Z,96.80
2023-03-29T22:21:14.506Z,96.80
2023-03-29T22:23:42.219Z,96.80
2023-03-29T22:26:09.529Z,97.00
2023-03-29T22:28:39.113Z,97.00
2023-03-29T22:31:10.702Z,97.10
2023-03-29T22:33:37.343Z,97.20
2023-03-29T22:36:11.700Z,97.30
2023-03-29T22:38:38.732Z,97.40
2023-03-29T22:41:06.042Z,97.50
2023-03-29T22:43:32.926Z,97.50
2023-03-29T22:45:59.574Z,97.50
2023-03-29T22:48:26.588Z,97.60
2023-03-29T22:50:53.159Z,97.70
2023-03-29T22:53:19.751Z,97.80
2023-03-29T22:55:46.365Z,97.70
2023-03-29T22:58:12.988Z,97.80
2023-03-29T23:00:39.550Z,98.00
2023-03-29T23:03:06.724Z,98.00
2023-03-29T23:05:33.610Z,98.00
2023-03-29T23:08:00.544Z,98.00
2023-03-29T23:10:28.964Z,98.00
2023-03-29T23:13:08.423Z,98.20
2023-03-29T23:15:42.698Z,98.20
2023-03-29T23:18:09.492Z,98.40
2023-03-29T23:20:36.158Z,98.40
2023-03-29T23:23:02.783Z,98.60
2023-03-29T23:25:29.967Z,98.80
2023-03-29T23:27:56.650Z,99.00
2023-03-29T23:30:23.516Z,99.20
2023-03-29T23:32:50.687Z,99.30
2023-03-29T23:35:17.298Z,99.40
2023-03-29T23:37:44.822Z,99.40
2023-03-29T23:40:13.863Z,99.50
2023-03-29T23:42:41.146Z,99.60
2023-03-29T23:45:08.926Z,99.60
2023-03-29T23:47:36.678Z,99.80
2023-03-29T23:50:03.931Z,99.80
2023-03-29T23:52:32.693Z,99.80
2023-03-29T23:55:00.614Z,99.90
2023-03-29T23:57:28.213Z,99.90
2023-03-29T23:59:55.774Z,99.90
